BWI weather

Baltimore/Washington International Thurgood Marshall Airport
Baltimore, Maryland, United States

Public forecast

Using degrees Fahrenheit for public forecast. Weather courtesy of forecast.io.

Current aviation weather report (METAR) for Baltimore/Washington International Thurgood Marshall Airport

Retrieved 2020/01/26 19:54 UTC (16 minutes ago):

KBWI 261954Z 26012KT 10SM BKN050 BKN075 08/M02 A2984 RMK AO2 SLP106 T00781022

Aviation forecast (TAF) for Baltimore/Washington International Thurgood Marshall Airport

Retrieved 2020/01/26 18:22 UTC (2 hours ago):

TAF KBWI 261720Z 2618/2724 28010KT P6SM BKN045 FM270100 28006KT P6SM SCT045 FM270600 28010KT P6SM BKN040